Time;durP1;ratioP1;P1;durP2;ratioP2;P2;SDS_P1;SDS_P2;PMS_P1;PMS_P2;Temp;Humidity;BMP_temperature;BMP_pressure;BME280_temperature;BME280_humidity;BME280_pressure;Samples;Min_cycle;Max_cycle;Signal;HPM_P1;HPM_P2
2021/08/22 00:00:40;;;;;;;9.95;4.47;;;;;;;19.17;93.17;101063.00;5025487;28;20046;-66
2021/08/22 00:03:08;;;;;;;8.48;4.57;;;;;;;19.13;93.35;101066.72;5023179;28;20053;-64
2021/08/22 00:05:34;;;;;;;8.23;3.70;;;;;;;19.13;92.83;101066.72;5021964;28;20426;-66
2021/08/22 00:08:01;;;;;;;9.45;4.45;;;;;;;19.08;93.38;101059.03;5027997;28;20049;-66
2021/08/22 00:10:27;;;;;;;47.03;37.10;;;;;;;19.14;93.16;101057.88;5025168;28;20499;-68
2021/08/22 00:12:55;;;;;;;10.35;5.82;;;;;;;19.15;92.62;101056.97;5024637;28;20056;-67
2021/08/22 00:15:21;;;;;;;12.43;6.97;;;;;;;19.05;92.73;101053.94;5026272;28;20500;-67
2021/08/22 00:17:47;;;;;;;15.52;10.27;;;;;;;19.09;93.94;101057.28;5024819;28;20049;-66
2021/08/22 00:20:15;;;;;;;8.88;4.05;;;;;;;19.10;91.96;101056.34;5025982;28;20050;-66
2021/08/22 00:22:42;;;;;;;5.78;3.17;;;;;;;19.08;92.21;101056.41;5028637;28;20128;-67
2021/08/22 00:25:09;;;;;;;7.97;3.00;;;;;;;18.98;91.70;101052.53;5020414;28;20060;-66
2021/08/22 00:27:36;;;;;;;5.43;3.15;;;;;;;18.90;91.96;101055.53;5026118;28;20045;-67
2021/08/22 00:30:02;;;;;;;8.80;2.90;;;;;;;18.88;91.61;101049.47;5022235;28;20042;-67
2021/08/22 00:32:29;;;;;;;8.13;3.03;;;;;;;18.84;92.43;101052.34;5024509;28;20073;-67
2021/08/22 00:34:55;;;;;;;6.90;3.35;;;;;;;18.75;91.50;101051.84;5020053;28;22541;-67
2021/08/22 00:37:26;;;;;;;5.82;2.80;;;;;;;18.64;91.73;101048.88;5025228;28;20136;-66
2021/08/22 00:39:52;;;;;;;3.85;2.13;;;;;;;18.62;91.89;101045.47;5023684;28;20060;-65
2021/08/22 00:42:18;;;;;;;4.57;2.15;;;;;;;18.58;91.78;101044.75;5026790;28;20045;-66
2021/08/22 00:44:45;;;;;;;5.25;2.17;;;;;;;18.54;91.73;101052.88;5024729;28;20055;-65
2021/08/22 00:47:11;;;;;;;5.38;1.83;;;;;;;18.52;92.18;101045.03;5022610;28;20479;-66
2021/08/22 00:49:39;;;;;;;5.22;1.92;;;;;;;18.49;92.42;101045.22;5024171;28;20501;-66
2021/08/22 00:52:07;;;;;;;5.20;2.10;;;;;;;18.44;92.38;101042.78;5026754;28;20045;-66
2021/08/22 00:54:35;;;;;;;4.90;2.60;;;;;;;18.49;92.04;101042.56;5026924;28;20111;-65
2021/08/22 00:57:02;;;;;;;22.30;16.83;;;;;;;18.48;92.39;101038.22;5026664;28;20045;-66
2021/08/22 00:59:29;;;;;;;6.40;3.42;;;;;;;18.43;92.23;101038.44;5027312;28;20046;-66
2021/08/22 01:01:58;;;;;;;6.55;2.35;;;;;;;18.44;92.07;101032.25;5022652;28;20403;-67
2021/08/22 01:04:31;;;;;;;3.50;1.75;;;;;;;18.43;92.15;101041.06;5021892;28;20593;-67
2021/08/22 01:07:02;;;;;;;9.70;6.43;;;;;;;18.39;92.36;101038.66;5024257;28;20052;-66
2021/08/22 01:09:34;;;;;;;4.82;2.22;;;;;;;18.40;91.78;101041.22;5026876;28;20056;-66
2021/08/22 01:12:07;;;;;;;10.10;6.72;;;;;;;18.35;91.88;101048.50;5027386;28;20049;-66
2021/08/22 01:14:38;;;;;;;7.78;4.38;;;;;;;18.33;92.32;101045.06;5026498;28;20048;-65
2021/08/22 01:17:05;;;;;;;4.05;2.08;;;;;;;18.34;91.75;101041.53;5024492;28;20079;-66
2021/08/22 01:19:45;;;;;;;8.50;1.90;;;;;;;18.31;91.80;101044.28;5025849;28;20271;-65
2021/08/22 01:22:12;;;;;;;3.83;1.90;;;;;;;18.27;92.04;101051.47;5024951;28;20056;-66
2021/08/22 01:24:41;;;;;;;6.05;2.22;;;;;;;18.23;91.95;101049.06;5023288;28;20361;-66
2021/08/22 01:27:10;;;;;;;3.83;1.92;;;;;;;18.23;92.53;101057.78;5024911;28;20135;-66
2021/08/22 01:29:40;;;;;;;5.57;2.17;;;;;;;18.19;92.37;101058.88;5026321;28;20050;-67
2021/08/22 01:32:08;;;;;;;4.78;2.28;;;;;;;18.17;92.26;101061.56;5019858;28;20068;-65
2021/08/22 01:34:37;;;;;;;4.82;1.90;;;;;;;18.13;91.92;101061.78;5023361;28;20103;-66
2021/08/22 01:37:04;;;;;;;6.80;2.55;;;;;;;18.07;92.28;101067.34;5024104;28;20041;-66
2021/08/22 01:39:32;;;;;;;5.00;2.50;;;;;;;17.96;92.42;101057.28;5027240;28;20423;-66
2021/08/22 01:41:59;;;;;;;6.28;2.95;;;;;;;17.92;92.49;101059.16;5031390;28;20053;-66
2021/08/22 01:44:26;;;;;;;5.93;2.58;;;;;;;17.91;92.47;101059.25;5031194;28;20107;-67
2021/08/22 01:46:53;;;;;;;5.05;2.38;;;;;;;17.83;93.04;101060.44;5026379;28;20042;-66
2021/08/22 01:49:20;;;;;;;6.93;3.15;;;;;;;17.83;93.48;101051.69;5028080;28;20053;-66
2021/08/22 01:51:48;;;;;;;6.53;2.58;;;;;;;17.83;93.43;101060.44;5028088;28;20133;-66
2021/08/22 01:54:15;;;;;;;5.57;2.85;;;;;;;17.82;93.22;101065.75;5032600;28;20049;-66
2021/08/22 01:56:42;;;;;;;4.82;2.35;;;;;;;17.83;93.38;101067.47;5028482;28;20462;-66
2021/08/22 01:59:09;;;;;;;4.32;2.10;;;;;;;17.83;93.03;101064.84;5030952;28;20045;-66
2021/08/22 02:01:37;;;;;;;7.03;2.53;;;;;;;17.76;93.05;101063.41;5024620;28;20045;-66
2021/08/22 02:04:09;;;;;;;6.82;2.58;;;;;;;17.76;93.61;101071.31;5027435;28;20095;-66
2021/08/22 02:06:40;;;;;;;6.43;2.20;;;;;;;17.71;93.28;101069.75;5023592;28;20483;-66
2021/08/22 02:09:10;;;;;;;8.52;3.13;;;;;;;17.72;93.80;101070.59;5029115;28;20506;-65
2021/08/22 02:11:42;;;;;;;4.95;2.67;;;;;;;17.79;94.07;101072.03;5030867;28;20053;-66
2021/08/22 02:14:10;;;;;;;4.57;2.60;;;;;;;17.78;94.19;101077.38;5024579;28;20057;-67
2021/08/22 02:16:37;;;;;;;5.75;2.47;;;;;;;17.85;94.06;101077.03;5025094;28;20061;-65
2021/08/22 02:19:05;;;;;;;5.60;2.78;;;;;;;17.86;94.03;101070.84;5031938;28;20053;-66
2021/08/22 02:21:32;;;;;;;7.80;2.83;;;;;;;17.87;93.68;101074.31;5030740;28;20045;-65
2021/08/22 02:23:59;;;;;;;6.45;3.20;;;;;;;17.88;93.91;101071.59;5029708;28;20430;-67
2021/08/22 02:26:27;;;;;;;7.10;2.90;;;;;;;17.87;94.08;101064.63;5029054;28;20037;-67
2021/08/22 02:28:55;;;;;;;5.45;2.92;;;;;;;17.94;93.54;101067.00;5028841;28;20042;-65
2021/08/22 02:31:22;;;;;;;6.60;2.85;;;;;;;17.89;93.64;101061.94;5025673;28;20499;-66
2021/08/22 02:33:48;;;;;;;6.57;3.03;;;;;;;17.87;94.32;101064.63;5026737;28;20068;-67
2021/08/22 02:36:15;;;;;;;6.85;3.15;;;;;;;17.91;94.47;101064.50;5029742;28;20529;-66
2021/08/22 02:38:41;;;;;;;6.47;3.05;;;;;;;17.92;93.84;101069.69;5030943;28;20546;-66
2021/08/22 02:41:08;;;;;;;5.82;3.40;;;;;;;17.88;94.45;101063.72;5022508;28;20049;-65
2021/08/22 02:43:36;;;;;;;6.68;3.17;;;;;;;17.85;94.13;101063.00;5022595;28;20053;-66
2021/08/22 02:46:03;;;;;;;5.95;3.53;;;;;;;17.85;94.66;101063.00;5023607;28;20041;-65
2021/08/22 02:48:29;;;;;;;6.68;3.40;;;;;;;17.88;94.63;101076.03;5026854;28;20151;-66
2021/08/22 02:50:56;;;;;;;6.82;3.40;;;;;;;17.90;94.44;101071.56;5024812;28;20049;-65
2021/08/22 02:53:22;;;;;;;9.45;3.75;;;;;;;17.83;94.64;101076.25;5024284;28;20065;-66
2021/08/22 02:55:49;;;;;;;5.55;3.50;;;;;;;17.81;94.63;101066.72;5024757;28;20107;-65
2021/08/22 02:58:15;;;;;;;5.32;3.78;;;;;;;17.77;94.83;101068.59;5031186;28;20053;-66
2021/08/22 03:00:43;;;;;;;8.48;4.00;;;;;;;17.80;94.17;101079.00;5025249;28;20053;-65
2021/08/22 03:03:09;;;;;;;6.55;3.97;;;;;;;17.81;94.50;101079.88;5020968;28;20423;-65
2021/08/22 03:05:36;;;;;;;8.18;4.43;;;;;;;17.81;94.33;101069.34;5025279;28;20052;-66
2021/08/22 03:08:02;;;;;;;7.82;4.80;;;;;;;17.81;94.15;101074.59;5031040;28;20041;-66
2021/08/22 03:10:29;;;;;;;11.00;5.05;;;;;;;17.78;94.15;101074.72;5028934;28;20053;-66
2021/08/22 03:12:55;;;;;;;10.68;5.85;;;;;;;17.78;93.74;101067.69;5028278;28;20085;-65
2021/08/22 03:15:22;;;;;;;12.38;7.32;;;;;;;17.78;94.49;101067.69;5026317;28;20061;-65
2021/08/22 03:17:50;;;;;;;9.95;6.90;;;;;;;17.81;94.64;101064.06;5026613;28;20087;-66
2021/08/22 03:20:17;;;;;;;9.95;6.78;;;;;;;17.76;94.45;101066.03;5025950;28;20049;-65
2021/08/22 03:22:44;;;;;;;13.73;9.73;;;;;;;17.68;94.72;101063.75;5029121;28;20050;-65
2021/08/22 03:25:12;;;;;;;14.48;8.77;;;;;;;17.65;95.26;101053.38;5026452;28;20526;-65
2021/08/22 03:27:38;;;;;;;14.60;9.57;;;;;;;17.56;96.26;101059.88;5027089;28;20046;-66
2021/08/22 03:30:06;;;;;;;17.00;10.40;;;;;;;17.51;96.64;101057.44;5029232;28;20091;-65
2021/08/22 03:32:32;;;;;;;14.10;11.43;;;;;;;17.54;96.51;101049.44;5027918;28;20049;-66
2021/08/22 03:35:00;;;;;;;14.05;10.80;;;;;;;17.57;96.97;101048.44;5026999;28;20053;-66
2021/08/22 03:37:27;;;;;;;15.30;11.55;;;;;;;17.63;97.14;101050.78;5029263;28;20038;-67
2021/08/22 03:39:53;;;;;;;17.73;12.55;;;;;;;17.59;97.63;101049.22;5030222;28;20045;-66
2021/08/22 03:42:20;;;;;;;18.60;14.00;;;;;;;17.60;97.38;101050.06;5025123;28;20503;-65
2021/08/22 03:44:46;;;;;;;18.63;13.02;;;;;;;17.63;97.37;101049.94;5028229;28;20388;-65
2021/08/22 03:47:12;;;;;;;18.15;14.13;;;;;;;17.57;97.94;101051.06;5026869;28;20045;-66
2021/08/22 03:49:39;;;;;;;18.02;13.82;;;;;;;17.61;98.14;101052.66;5024848;28;20172;-66
2021/08/22 03:52:07;;;;;;;20.13;14.82;;;;;;;17.62;98.13;101064.03;5025912;28;20060;-66
2021/08/22 03:54:34;;;;;;;19.20;13.98;;;;;;;17.67;98.20;101054.13;5028928;28;20049;-67
2021/08/22 03:57:00;;;;;;;18.02;12.95;;;;;;;17.65;98.33;101062.09;5027874;28;20060;-65
2021/08/22 03:59:27;;;;;;;19.88;13.27;;;;;;;17.71;98.06;101071.50;5021985;28;20054;-66
2021/08/22 04:01:53;;;;;;;18.75;13.60;;;;;;;17.72;98.25;101066.16;5019019;28;21032;-66
2021/08/22 04:04:19;;;;;;;20.00;12.57;;;;;;;17.75;98.42;101053.81;5026812;28;20060;-65
2021/08/22 04:06:49;;;;;;;16.95;12.65;;;;;;;17.78;98.05;101065.03;5032331;28;20124;-66
2021/08/22 04:09:18;;;;;;;16.08;12.20;;;;;;;17.78;97.79;101065.03;5028780;28;20172;-66
2021/08/22 04:11:46;;;;;;;17.92;12.45;;;;;;;17.78;98.17;101062.41;5039347;28;20100;-65
2021/08/22 04:14:12;;;;;;;16.67;12.50;;;;;;;17.83;98.17;101064.84;5026517;28;20145;-66
2021/08/22 04:16:39;;;;;;;16.27;12.65;;;;;;;17.82;97.31;101066.63;5026522;28;20052;-67
2021/08/22 04:19:05;;;;;;;14.77;11.93;;;;;;;17.79;97.70;101063.28;5029114;28;20052;-66
2021/08/22 04:21:33;;;;;;;16.85;11.35;;;;;;;17.78;97.75;101072.09;5027317;28;20056;-66
2021/08/22 04:24:00;;;;;;;15.70;11.95;;;;;;;17.80;97.18;101073.72;5028054;28;20522;-66
2021/08/22 04:26:28;;;;;;;16.17;12.40;;;;;;;17.81;97.52;101075.44;5029170;28;20068;-66
2021/08/22 04:28:54;;;;;;;17.13;12.20;;;;;;;17.81;97.17;101070.19;5025656;28;20054;-65
2021/08/22 04:31:21;;;;;;;15.18;12.70;;;;;;;17.76;96.83;101066.91;5022331;28;20049;-67
2021/08/22 04:33:47;;;;;;;17.98;13.63;;;;;;;17.71;96.89;101075.00;5025549;28;20049;-66
2021/08/22 04:36:14;;;;;;;18.02;13.27;;;;;;;17.69;97.21;101079.47;5025919;28;20183;-66
2021/08/22 04:38:40;;;;;;;19.75;13.90;;;;;;;17.74;97.35;101075.78;5020668;28;20454;-67
2021/08/22 04:41:06;;;;;;;18.15;13.90;;;;;;;17.71;97.49;101082.03;5033084;28;20049;-66
2021/08/22 04:43:34;;;;;;;17.70;14.00;;;;;;;17.71;97.38;101082.91;5029126;28;20083;-66
2021/08/22 04:46:01;;;;;;;19.30;15.43;;;;;;;17.69;97.59;101086.50;5025949;28;20053;-66
2021/08/22 04:48:27;;;;;;;22.00;17.73;;;;;;;17.66;97.56;101087.50;5033378;28;20049;-66
2021/08/22 04:50:53;;;;;;;21.08;15.65;;;;;;;17.69;97.61;101084.75;5029450;28;20052;-66
2021/08/22 04:53:20;;;;;;;21.83;16.48;;;;;;;17.71;97.03;101085.53;5028370;28;20061;-66
2021/08/22 04:55:46;;;;;;;17.98;15.52;;;;;;;17.69;97.19;101092.63;5025368;28;20087;-67
2021/08/22 04:58:13;;;;;;;22.85;17.52;;;;;;;17.60;97.95;101093.03;5033456;28;20390;-66
2021/08/22 05:00:40;;;;;;;22.98;17.85;;;;;;;17.64;98.42;101088.50;5031343;28;20061;-66
2021/08/22 05:03:07;;;;;;;23.52;17.80;;;;;;;17.64;97.87;101094.59;5023704;28;20049;-65
2021/08/22 05:05:33;;;;;;;27.15;18.05;;;;;;;17.68;97.62;101096.19;5030323;28;20112;-67
2021/08/22 05:08:00;;;;;;;24.02;17.52;;;;;;;17.67;97.97;101089.22;5027271;28;20590;-65
2021/08/22 05:10:26;;;;;;;30.95;18.77;;;;;;;17.71;97.91;101092.56;5025604;28;20045;-67
2021/08/22 05:12:52;;;;;;;30.65;19.63;;;;;;;17.73;97.70;101098.63;5020343;28;20786;-65
2021/08/22 05:15:19;;;;;;;25.52;18.83;;;;;;;17.72;97.90;101095.09;5027097;28;20053;-66
2021/08/22 05:17:47;;;;;;;29.55;19.30;;;;;;;17.81;97.54;101098.28;5032675;28;20048;-66
2021/08/22 05:20:13;;;;;;;28.13;20.23;;;;;;;17.82;97.56;101102.59;5027808;28;20054;-68
2021/08/22 05:22:40;;;;;;;31.98;19.23;;;;;;;17.87;97.44;101105.91;5028167;28;20159;-67
2021/08/22 05:25:07;;;;;;;29.25;18.88;;;;;;;17.92;97.66;101103.91;5030693;28;20077;-66
2021/08/22 05:27:34;;;;;;;33.40;19.45;;;;;;;17.91;97.19;101102.22;5030116;28;20041;-67
2021/08/22 05:30:00;;;;;;;27.55;19.40;;;;;;;17.97;96.96;101101.97;5027022;28;20057;-66
2021/08/22 05:32:27;;;;;;;27.38;20.10;;;;;;;17.93;97.07;101094.25;5027864;28;20041;-66
2021/08/22 05:34:54;;;;;;;27.40;19.73;;;;;;;17.92;96.79;101106.53;5032591;28;20056;-67
2021/08/22 05:37:21;;;;;;;27.70;20.25;;;;;;;17.95;96.69;101101.16;5026770;28;20058;-67
2021/08/22 05:39:48;;;;;;;30.42;20.92;;;;;;;17.92;96.89;101110.97;5027830;28;20096;-67
2021/08/22 05:42:14;;;;;;;30.52;20.70;;;;;;;17.94;96.86;101107.31;5023603;28;20413;-67
2021/08/22 05:44:41;;;;;;;29.48;20.20;;;;;;;17.94;96.69;101115.22;5030911;28;20049;-67
2021/08/22 05:47:07;;;;;;;28.88;20.33;;;;;;;17.97;96.06;101119.53;5030566;28;20056;-67
2021/08/22 05:49:38;;;;;;;41.92;22.38;;;;;;;17.93;96.67;101120.56;5029701;28;20053;-67
2021/08/22 05:52:07;;;;;;;38.28;21.83;;;;;;;17.87;97.00;101116.44;5028736;28;20050;-68
2021/08/22 05:54:34;;;;;;;33.13;23.80;;;;;;;17.83;97.19;101117.47;5029500;28;20064;-67
2021/08/22 05:57:00;;;;;;;37.88;23.50;;;;;;;17.85;96.91;101120.91;5024963;28;20423;-66
2021/08/22 05:59:27;;;;;;;33.22;23.15;;;;;;;17.92;96.75;101119.69;5029521;28;20056;-66
2021/08/22 06:01:53;;;;;;;34.35;24.70;;;;;;;17.92;97.11;101109.16;5025707;28;20049;-66
2021/08/22 06:04:19;;;;;;;38.13;24.27;;;;;;;18.00;96.29;101112.38;5025237;28;20058;-66
2021/08/22 06:09:25;;;;;;;34.88;24.23;;;;;;;18.03;96.05;101112.22;5022585;28;20045;-70
2021/08/22 06:11:52;;;;;;;36.97;25.38;;;;;;;18.07;95.85;101112.09;5026771;28;20053;-69
2021/08/22 06:14:18;;;;;;;39.58;26.45;;;;;;;18.14;95.07;101116.16;5031024;28;20048;-70
2021/08/22 06:16:45;;;;;;;35.75;25.13;;;;;;;18.16;94.67;101116.94;5027010;28;20060;-69
2021/08/22 06:19:11;;;;;;;33.45;25.02;;;;;;;18.12;94.01;101124.13;5002813;28;20553;-70
2021/08/22 06:21:38;;;;;;;41.60;25.52;;;;;;;18.12;94.09;101123.25;5004514;28;20046;-70
2021/08/22 06:24:05;;;;;;;38.30;24.92;;;;;;;18.18;93.57;101131.72;5002738;28;20107;-70
2021/08/22 06:26:33;;;;;;;36.15;24.95;;;;;;;18.14;93.79;101129.31;5007095;28;20053;-70
2021/08/22 06:28:59;;;;;;;34.13;24.98;;;;;;;18.19;93.21;101135.25;5009547;28;20049;-69
2021/08/22 06:31:26;;;;;;;34.50;25.08;;;;;;;18.26;93.09;101128.75;5004057;28;20496;-70
2021/08/22 06:33:52;;;;;;;33.63;24.45;;;;;;;18.35;93.10;101138.03;5015617;28;20050;-69
2021/08/22 06:36:18;;;;;;;32.95;23.98;;;;;;;18.56;92.85;101136.19;5015138;28;20112;-69
2021/08/22 06:38:45;;;;;;;31.52;23.20;;;;;;;18.70;91.50;101135.53;5009635;28;20095;-70
2021/08/22 06:41:11;;;;;;;32.20;21.60;;;;;;;18.75;91.18;101138.81;4999188;28;20732;-68
2021/08/22 06:43:39;;;;;;;32.08;22.55;;;;;;;18.83;90.76;101137.59;5005059;28;20073;-69
2021/08/22 06:46:05;;;;;;;33.15;21.10;;;;;;;18.83;90.42;101137.59;5001771;28;20047;-69
2021/08/22 06:48:32;;;;;;;33.33;20.83;;;;;;;18.93;90.27;101134.47;5011756;28;20057;-69
2021/08/22 06:50:58;;;;;;;30.15;21.75;;;;;;;19.02;90.18;101132.31;5004158;28;20050;-70
2021/08/22 06:53:25;;;;;;;25.52;19.23;;;;;;;19.16;89.92;101144.84;5004237;28;20065;-69
2021/08/22 06:55:51;;;;;;;27.13;19.90;;;;;;;19.29;88.94;101142.47;5002735;28;20053;-70
2021/08/22 06:58:18;;;;;;;32.10;20.23;;;;;;;19.36;88.19;101135.94;5015985;28;20049;-70
2021/08/22 07:00:45;;;;;;;26.30;20.25;;;;;;;19.41;87.40;101145.34;5002343;28;20054;-70
2021/08/22 07:03:12;;;;;;;28.75;19.17;;;;;;;19.52;87.77;101154.50;5003185;28;20103;-69
2021/08/22 07:05:38;;;;;;;27.45;18.85;;;;;;;19.23;87.56;101144.44;5005879;28;20046;-70
2021/08/22 07:08:06;;;;;;;24.80;19.65;;;;;;;19.30;87.25;101152.06;5014025;28;20127;-70
2021/08/22 07:10:32;;;;;;;24.20;18.23;;;;;;;19.35;85.81;101150.91;5014790;28;20057;-69
2021/08/22 07:12:58;;;;;;;23.35;17.58;;;;;;;19.33;85.75;101149.25;5013997;28;20049;-69
2021/08/22 07:15:25;;;;;;;28.35;17.92;;;;;;;19.37;85.79;101153.47;5013267;28;20107;-70
2021/08/22 07:17:53;;;;;;;24.73;16.83;;;;;;;19.38;86.32;101140.19;5009092;28;20049;-69
2021/08/22 07:20:19;;;;;;;22.13;16.90;;;;;;;19.48;86.19;101142.38;5000811;28;20393;-70
2021/08/22 07:22:46;;;;;;;22.13;14.93;;;;;;;19.54;86.47;101150.84;5009274;28;20050;-69
2021/08/22 07:25:13;;;;;;;22.63;14.82;;;;;;;19.65;85.32;101149.44;5007163;28;20065;-69
2021/08/22 07:27:39;;;;;;;20.58;14.23;;;;;;;19.74;84.17;101156.88;5018313;28;20058;-69
2021/08/22 07:30:07;;;;;;;19.58;14.02;;;;;;;19.72;84.31;101153.47;5002062;28;20045;-68
2021/08/22 07:32:33;;;;;;;20.00;14.13;;;;;;;19.75;84.00;101157.75;5009692;28;20045;-68
2021/08/22 07:35:01;;;;;;;23.00;13.70;;;;;;;19.72;82.90;101158.75;5011618;28;20529;-68
2021/08/22 07:37:28;;;;;;;18.77;13.38;;;;;;;19.74;82.04;101162.16;5005844;28;20129;-69
2021/08/22 07:39:54;;;;;;;17.23;13.02;;;;;;;19.62;83.55;101154.88;5015255;28;20057;-69
2021/08/22 07:42:21;;;;;;;17.45;12.20;;;;;;;19.67;83.36;101156.34;5001696;28;20429;-68
2021/08/22 07:44:47;;;;;;;16.38;11.55;;;;;;;19.74;83.11;101156.88;5012515;28;20542;-68
2021/08/22 07:47:14;;;;;;;17.27;11.25;;;;;;;19.67;83.35;101160.78;5016111;28;20420;-69
2021/08/22 07:49:40;;;;;;;16.70;10.98;;;;;;;19.65;83.50;101165.28;5013054;28;20057;-68
2021/08/22 07:52:08;;;;;;;16.40;10.48;;;;;;;19.74;82.73;101164.81;5013513;28;20119;-68
2021/08/22 07:54:35;;;;;;;15.00;10.18;;;;;;;19.87;82.77;101167.69;5008716;28;20053;-69
2021/08/22 07:57:01;;;;;;;16.77;10.35;;;;;;;19.97;82.92;101165.44;5013519;28;20062;-69
2021/08/22 07:59:28;;;;;;;17.52;9.10;;;;;;;20.07;83.13;101164.03;5016978;28;20045;-68
2021/08/22 08:01:54;;;;;;;13.65;8.65;;;;;;;20.12;81.12;101164.63;5007839;28;20922;-67
2021/08/22 08:04:20;;;;;;;11.27;7.32;;;;;;;20.28;81.30;101167.31;5017729;28;20058;-68
2021/08/22 08:06:47;;;;;;;12.80;8.38;;;;;;;20.33;80.28;101167.94;5004068;28;20053;-68
2021/08/22 08:09:15;;;;;;;11.25;7.05;;;;;;;20.39;80.01;101171.16;4998496;28;20050;-69
2021/08/22 08:11:42;;;;;;;10.77;7.05;;;;;;;20.42;79.79;101169.22;4996939;28;20412;-69
2021/08/22 08:14:09;;;;;;;11.52;6.18;;;;;;;20.49;79.32;101170.59;5001643;28;20054;-67
2021/08/22 08:16:36;;;;;;;10.98;7.18;;;;;;;20.59;78.67;101178.03;5012898;28;20053;-68
2021/08/22 08:19:03;;;;;;;13.27;7.93;;;;;;;20.58;79.02;101173.69;5014043;28;20049;-68
2021/08/22 08:21:30;;;;;;;12.57;6.50;;;;;;;20.53;78.97;101175.72;5012845;28;20514;-68
2021/08/22 08:23:57;;;;;;;10.48;6.72;;;;;;;20.56;78.75;101176.41;5000785;28;20053;-67
2021/08/22 08:26:25;;;;;;;13.13;7.00;;;;;;;20.57;78.76;101171.97;4995485;28;20057;-68
2021/08/22 08:28:52;;;;;;;9.95;6.03;;;;;;;20.72;78.57;101176.41;4998305;28;20054;-68
2021/08/22 08:31:18;;;;;;;14.30;6.93;;;;;;;20.96;78.01;101171.56;5009028;28;20049;-68
2021/08/22 08:33:45;;;;;;;13.90;6.90;;;;;;;21.31;76.56;101174.97;5001643;28;20050;-69
2021/08/22 08:36:11;;;;;;;13.73;6.47;;;;;;;21.49;75.96;101183.63;4999229;28;20510;-68
2021/08/22 08:38:38;;;;;;;10.75;6.22;;;;;;;21.58;75.96;101180.44;5008747;28;20054;-68
2021/08/22 08:41:05;;;;;;;10.15;6.40;;;;;;;21.62;74.69;101181.16;4999098;28;20541;-69
2021/08/22 08:43:33;;;;;;;13.73;5.95;;;;;;;21.56;75.06;101167.28;5012775;28;20066;-68
2021/08/22 08:45:59;;;;;;;15.07;5.22;;;;;;;21.46;74.81;101182.00;4993591;28;20054;-69
2021/08/22 08:48:27;;;;;;;9.50;5.72;;;;;;;21.44;74.89;101183.91;5006102;28;20068;-68
2021/08/22 08:51:11;;;;;;;11.70;5.75;;;;;;;21.47;74.27;101180.22;5016779;28;20054;-69
2021/08/22 08:53:40;;;;;;;9.18;6.00;;;;;;;21.47;75.28;101183.69;5007405;28;20061;-69
2021/08/22 08:56:06;;;;;;;9.90;5.70;;;;;;;21.60;74.19;101183.88;5001324;28;20049;-68
2021/08/22 08:58:34;;;;;;;11.52;5.82;;;;;;;21.55;74.17;101186.78;5012653;28;20053;-69
2021/08/22 09:01:00;;;;;;;9.43;5.85;;;;;;;21.51;74.13;101187.03;4995133;28;20500;-69
2021/08/22 09:03:27;;;;;;;11.73;5.82;;;;;;;21.34;74.69;101190.66;5004181;28;20061;-68
2021/08/22 09:06:35;;;;;;;8.43;5.45;;;;;;;21.17;75.17;101181.88;4995725;28;20057;-68
2021/08/22 09:09:38;;;;;;;8.52;5.40;;;;;;;21.02;75.41;101180.97;4995573;28;20562;-68
2021/08/22 09:12:49;;;;;;;10.32;5.60;;;;;;;20.91;77.26;101175.44;5013986;28;20045;-68
2021/08/22 09:15:55;;;;;;;9.48;6.03;;;;;;;20.97;76.33;101183.84;4992913;28;20053;-68
2021/08/22 09:19:14;;;;;;;8.65;4.97;;;;;;;20.99;77.14;101178.50;5005290;28;20050;-68
2021/08/22 09:22:31;;;;;;;9.85;4.82;;;;;;;21.29;75.64;101175.06;5005191;28;20435;-67
2021/08/22 09:25:46;;;;;;;7.90;4.75;;;;;;;21.40;74.53;101172.66;4982912;28;20050;-67
2021/08/22 09:28:50;;;;;;;12.43;4.53;;;;;;;21.51;72.65;101165.88;4999881;28;20108;-67
2021/08/22 09:31:53;;;;;;;9.15;4.53;;;;;;;21.54;72.82;101163.91;4992599;28;20062;-67
2021/08/22 09:35:14;;;;;;;9.65;4.05;;;;;;;21.53;73.45;101171.91;5001008;28;20057;-67
2021/08/22 09:38:40;;;;;;;6.68;4.15;;;;;;;21.61;72.59;101169.69;4994807;28;20061;-67
2021/08/22 09:41:49;;;;;;;5.78;3.45;;;;;;;21.83;70.41;101157.81;4996318;28;20046;-67
2021/08/22 09:44:58;;;;;;;7.72;3.17;;;;;;;22.01;68.36;101162.00;4995936;28;20146;-66
2021/08/22 09:48:13;;;;;;;8.25;3.05;;;;;;;22.13;67.86;101165.72;5006032;28;20052;-68
2021/08/22 09:51:26;;;;;;;8.60;3.40;;;;;;;22.08;67.97;101162.47;5007244;28;20049;-68
2021/08/22 09:54:41;;;;;;;8.13;3.78;;;;;;;22.11;67.45;101164.13;4997028;28;20058;-70
2021/08/22 09:57:42;;;;;;;6.60;2.90;;;;;;;22.17;68.09;101167.22;5001873;28;20054;-68
2021/08/22 10:00:42;;;;;;;6.22;2.80;;;;;;;22.34;67.46;101168.81;5002327;28;20045;-68
2021/08/22 10:03:39;;;;;;;8.40;3.22;;;;;;;22.54;66.27;101166.75;5007290;28;20056;-68
2021/08/22 10:06:13;;;;;;;5.65;2.80;;;;;;;22.69;66.09;101161.44;4997224;28;20061;-68
2021/08/22 10:08:46;;;;;;;6.65;2.97;;;;;;;22.93;65.05;101151.91;4999721;28;20695;-67
2021/08/22 10:11:16;;;;;;;8.30;3.15;;;;;;;23.20;62.41;101153.75;5007117;28;20053;-68
2021/08/22 10:13:43;;;;;;;6.30;2.83;;;;;;;23.16;61.44;101152.19;5000358;28;20051;-68
2021/08/22 10:16:10;;;;;;;6.82;2.53;;;;;;;23.22;61.34;101146.50;5013245;28;20049;-68
2021/08/22 10:18:36;;;;;;;5.95;2.45;;;;;;;23.21;60.04;101149.28;5020857;28;20046;-67
2021/08/22 10:21:07;;;;;;;5.53;2.35;;;;;;;23.05;59.20;101152.91;5004626;28;20919;-67
2021/08/22 10:23:54;;;;;;;11.10;2.90;;;;;;;23.01;60.99;101154.06;4999306;28;20050;-66
2021/08/22 10:26:50;;;;;;;6.07;2.55;;;;;;;23.01;57.98;101146.09;5004434;28;20054;-66
2021/08/22 10:29:30;;;;;;;6.45;2.40;;;;;;;22.95;57.26;101150.00;5002547;28;20060;-67
2021/08/22 10:32:10;;;;;;;6.65;2.78;;;;;;;22.90;59.17;101154.78;5013516;28;20061;-67
2021/08/22 10:34:37;;;;;;;7.95;2.70;;;;;;;22.88;59.75;101150.50;5013497;28;20128;-67
2021/08/22 10:37:27;;;;;;;5.40;2.83;;;;;;;23.01;58.56;101145.25;5009790;28;20092;-66
2021/08/22 10:39:54;;;;;;;6.10;2.30;;;;;;;23.03;57.76;101145.97;5002942;28;20230;-66
2021/08/22 10:42:24;;;;;;;6.05;2.45;;;;;;;23.02;56.59;101139.84;5004847;28;20475;-66
2021/08/22 10:44:51;;;;;;;7.05;2.40;;;;;;;22.87;58.76;101144.34;5007785;28;20062;-66
2021/08/22 10:47:43;;;;;;;5.70;2.33;;;;;;;22.82;58.13;101138.47;5012973;28;20045;-67
2021/08/22 10:50:10;;;;;;;5.10;2.40;;;;;;;22.74;58.40;101143.41;5012335;28;20276;-66
2021/08/22 10:52:40;;;;;;;7.22;2.60;;;;;;;22.75;58.55;101142.47;5004533;28;20048;-66
2021/08/22 10:55:28;;;;;;;5.93;2.55;;;;;;;22.74;57.62;101146.06;5011036;28;20041;-66
2021/08/22 10:57:55;;;;;;;6.22;2.33;;;;;;;22.80;57.99;101149.19;5007069;28;20054;-66
2021/08/22 11:00:22;;;;;;;7.43;2.53;;;;;;;22.86;59.93;101144.47;5001939;28;20113;-67
2021/08/22 11:02:49;;;;;;;9.15;2.72;;;;;;;22.88;58.51;101147.84;5000544;28;20484;-66
2021/08/22 11:05:17;;;;;;;8.52;2.97;;;;;;;22.78;60.33;101147.59;4998688;28;20042;-67
2021/08/22 11:07:46;;;;;;;7.43;3.05;;;;;;;22.74;56.97;101151.38;5011360;28;20103;-68
2021/08/22 11:10:13;;;;;;;6.70;3.10;;;;;;;22.76;58.69;101158.28;5008480;28;20056;-67
2021/08/22 11:12:39;;;;;;;7.45;2.88;;;;;;;22.80;58.91;101159.81;5011701;28;20150;-67
2021/08/22 11:15:08;;;;;;;6.15;2.58;;;;;;;22.87;57.94;101152.31;4996582;28;20057;-67
2021/08/22 11:17:34;;;;;;;6.07;2.67;;;;;;;22.91;57.53;101153.78;4999378;28;20073;-67
2021/08/22 11:20:09;;;;;;;7.85;2.60;;;;;;;22.96;57.59;101146.41;5005391;28;20037;-66
2021/08/22 11:22:36;;;;;;;7.18;2.58;;;;;;;22.90;57.65;101149.47;4996319;28;20060;-67
2021/08/22 11:25:04;;;;;;;7.30;2.92;;;;;;;22.80;57.29;101153.66;5004022;28;20050;-71
2021/08/22 11:27:31;;;;;;;8.32;3.25;;;;;;;22.68;58.12;101149.97;5000921;28;20041;-68
2021/08/22 11:29:59;;;;;;;8.20;3.60;;;;;;;22.59;59.21;101139.97;5000990;28;20041;-67
2021/08/22 11:32:27;;;;;;;7.90;2.85;;;;;;;22.32;59.08;101144.22;5000617;28;20053;-68
2021/08/22 11:34:53;;;;;;;10.93;3.15;;;;;;;22.21;59.07;101139.59;5005109;28;20111;-67